This is the latest recevied weather packets stored in our database for station/object IW2NIA-3. If no packets are shown the sender has not sent any weather packets the latest 10 day(s).
| Time | Temp. | Humidity | Pressure | Rain* | Wind** | Luminosity | Snow |
|---|---|---|---|---|---|---|---|
| 1777795415 | 18.33° C | 60% | 1018.6 hPa | 0 mm | - | - | - |
| 1777794526 | 17.78° C | 61% | 1018.7 hPa | 0 mm | - | - | - |
| 1777793616 | 17.22° C | 66% | 1018.6 hPa | 0 mm | - | - | - |
| 1777792709 | 16.67° C | 68% | 1018.7 hPa | 0 mm | - | - | - |
| 1777791825 | 16.11° C | 68% | 1018.7 hPa | 0 mm | - | - | - |
| 1777790914 | 15.56° C | 71% | 1018.8 hPa | 0 mm | - | - | - |
| 1777790008 | 15° C | 72% | 1018.7 hPa | 0 mm | - | - | - |
| 1777789117 | 15° C | 72% | 1018.6 hPa | 0 mm | - | - | - |
| 1777788210 | 14.44° C | 73% | 1018.6 hPa | 0 mm | - | - | - |
| 1777787307 | 13.89° C | 73% | 1018.6 hPa | 0 mm | - | - | - |
| 1777786416 | 13.33° C | 75% | 1018.5 hPa | 0 mm | - | - | - |
| 1777785526 | 12.78° C | 79% | 1018.4 hPa | 0 mm | - | - | - |
| 1777784622 | 11.11° C | 82% | 1018.4 hPa | 0 mm | - | - | - |
| 1777783714 | 10.56° C | 83% | 1018.5 hPa | 0 mm | - | - | - |
| 1777782812 | 10.56° C | 83% | 1018.5 hPa | 0 mm | - | - | - |
| 1777781910 | 10° C | 82% | 1018.5 hPa | 0 mm | - | - | - |
| 1777781026 | 10° C | 82% | 1018.4 hPa | 0 mm | - | - | - |
| 1777780120 | 10° C | 82% | 1018.4 hPa | 0 mm | - | - | - |
| 1777779216 | 10° C | 82% | 1018.4 hPa | 0 mm | - | - | - |
| 1777778314 | 10° C | 82% | 1018.4 hPa | 0 mm | - | - | - |
| 1777777407 | 10° C | 81% | 1018.5 hPa | 0 mm | - | - | - |
| 1777776517 | 10.56° C | 80% | 1018.5 hPa | 0 mm | - | - | - |
| 1777775614 | 10.56° C | 81% | 1018.6 hPa | 0 mm | - | - | - |
| 1777774710 | 10.56° C | 80% | 1018.7 hPa | 0 mm | - | - | - |
| 1777773824 | 10.56° C | 79% | 1018.8 hPa | 0 mm | - | - | - |
* Rain latest hour (hover to see other rain measurements)
** Current wind speed in m/s (hover to see current wind gust speed)